Terminal Aerodrome Forecast
Issued by NWS

Current Version | Previous Version | Text Only | Print | Product List | Glossary Off
Versions: 1 2 3 4 5 6 7 8 9 10 11 12 13 14 15 16 17 18 19 20 21 22 23 24 25 26 27 28 29 30

000
FTUS41 KILN 240103 AAB
TAFLUK
TAF AMD
KLUK 240103Z 2401/2424 34004KT P6SM VCSH FEW005 SCT060
     FM240300 32006KT P6SM SCT035 BKN150
     FM240800 VRB03KT 3SM BR SCT200
     FM241400 28008KT P6SM SCT250=

USA.gov is the U.S. government's official web portal to all federal, state and local government web resources and services.